Wawanesa, Canada
Current Conditions -  °F | °C
As of 2:21 AM on Friday 28 Nov 2014 (Local Time) from CYBR Reporting Station
Light Snow Light Snow  
Wind Chill: -6°   Ceiling: 2400
Heat Index:   Visibility: 1.5mi
Dew Point:   Wind: 10mph
Humidity: 85%   Direction: 80°E
Pressure: 30"   Gusts: NA
Location:  49.52°N, 99.68°W
Report Text: CYBR 280821Z 08009KT 1 1/2SM -SN OVC024 M13/M15 A3000 RMK SC8 SLP199
Loading
Personal Weather Stations






























Interactive Weather Map New forecast layout! Learn more

10-Day Weather Forecast

Advertisements
Track Severe Weather on mobile